Pagrindinis puslapis
METAR-TAF:

METAR-TAF

Oro uostai :

Riberalta, Bolivija

platuma: 11-00S, ilguma: 066-07W, Aukštis: 141 m

Dabartinis oras

Ataskaita buvo paskelbta 26 minutes, ne 14:00 UTC
Ramus vėjas
Temperatūra 32°C
Drėgmė 63%
Slėgis 1012 hPa
Matomumas: 5000 m
dūmai

METAR: SLRI 201400Z 00000KT 5000 FU NSC 32/24 Q1012

Laikas: 10:26 (14:26 UTC)


TAF: trūkstamas

Orai ataskaitas ir orų prognozės (METAR, TAF).

turimą stotys yra geltonos ir raudonos taškus žemėlapyje.

Perkelti pele per norėdami pamatyti stoties vardą.

Tada spustelėkite, norėdami matyti oro stebėjimo ir prognozės.

Norėdami pakeisti žemėlapį: spustelėkite ant žalios mygtukų su juodo kryžiaus žemyn,; žalią mygtuką su brūkšneliu, jei norite nutolinti; arba žalių rodyklių gretimoms žemėlapius.


METAR-TAF: